sensor_id;sensor_type;location;lat;lon;timestamp;temperature;humidity
61912;DHT22;49973;52.084;5.412;2023-02-27T00:01:00;-0.20;99.90
61912;DHT22;49973;52.084;5.412;2023-02-27T00:03:29;-0.20;99.90
61912;DHT22;49973;52.084;5.412;2023-02-27T00:05:58;-0.20;99.90
61912;DHT22;49973;52.084;5.412;2023-02-27T00:08:26;-0.20;99.90
61912;DHT22;49973;52.084;5.412;2023-02-27T00:10:55;-0.30;99.90
61912;DHT22;49973;52.084;5.412;2023-02-27T00:13:25;-0.30;99.90
61912;DHT22;49973;52.084;5.412;2023-02-27T00:15:54;-0.40;99.90
61912;DHT22;49973;52.084;5.412;2023-02-27T00:18:23;-0.40;99.90
61912;DHT22;49973;52.084;5.412;2023-02-27T00:20:52;-0.50;99.90
61912;DHT22;49973;52.084;5.412;2023-02-27T00:23:21;-0.40;99.90
61912;DHT22;49973;52.084;5.412;2023-02-27T00:25:50;-0.50;99.90
61912;DHT22;49973;52.084;5.412;2023-02-27T00:28:21;-0.50;99.90
61912;DHT22;49973;52.084;5.412;2023-02-27T00:30:51;-0.50;99.90
61912;DHT22;49973;52.084;5.412;2023-02-27T00:33:20;-0.50;99.90
61912;DHT22;49973;52.084;5.412;2023-02-27T00:35:54;-0.50;99.90
61912;DHT22;49973;52.084;5.412;2023-02-27T00:38:23;-0.50;99.90
61912;DHT22;49973;52.084;5.412;2023-02-27T00:40:51;-0.50;99.90
61912;DHT22;49973;52.084;5.412;2023-02-27T00:43:20;-0.50;99.90
61912;DHT22;49973;52.084;5.412;2023-02-27T00:45:51;-0.60;99.90
61912;DHT22;49973;52.084;5.412;2023-02-27T00:48:20;-0.60;99.90
61912;DHT22;49973;52.084;5.412;2023-02-27T00:50:49;-0.70;99.90
61912;DHT22;49973;52.084;5.412;2023-02-27T00:53:18;-0.70;99.90
61912;DHT22;49973;52.084;5.412;2023-02-27T00:55:47;-0.70;99.90
61912;DHT22;49973;52.084;5.412;2023-02-27T00:58:16;-0.80;99.90
61912;DHT22;49973;52.084;5.412;2023-02-27T01:00:44;-0.80;99.90
61912;DHT22;49973;52.084;5.412;2023-02-27T01:03:17;-0.90;99.90
61912;DHT22;49973;52.084;5.412;2023-02-27T01:05:46;-0.80;99.90
61912;DHT22;49973;52.084;5.412;2023-02-27T01:08:14;-1.00;99.90
61912;DHT22;49973;52.084;5.412;2023-02-27T01:10:43;-1.00;99.90
61912;DHT22;49973;52.084;5.412;2023-02-27T01:13:11;-1.10;99.90
61912;DHT22;49973;52.084;5.412;2023-02-27T01:15:40;-1.10;99.90
61912;DHT22;49973;52.084;5.412;2023-02-27T01:18:09;-1.20;99.90
61912;DHT22;49973;52.084;5.412;2023-02-27T01:20:39;-1.20;99.90
61912;DHT22;49973;52.084;5.412;2023-02-27T01:23:08;-1.30;99.90
61912;DHT22;49973;52.084;5.412;2023-02-27T01:25:37;-1.30;99.90
61912;DHT22;49973;52.084;5.412;2023-02-27T01:28:05;-1.30;99.90
61912;DHT22;49973;52.084;5.412;2023-02-27T01:30:36;-1.40;99.90
61912;DHT22;49973;52.084;5.412;2023-02-27T01:33:04;-1.40;99.90
61912;DHT22;49973;52.084;5.412;2023-02-27T01:35:34;-1.40;99.90
61912;DHT22;49973;52.084;5.412;2023-02-27T01:38:04;-1.50;99.90
61912;DHT22;49973;52.084;5.412;2023-02-27T01:40:34;-1.50;99.90
61912;DHT22;49973;52.084;5.412;2023-02-27T01:43:04;-1.50;99.90
61912;DHT22;49973;52.084;5.412;2023-02-27T01:45:34;-1.50;99.90
61912;DHT22;49973;52.084;5.412;2023-02-27T01:48:07;-1.40;99.90
61912;DHT22;49973;52.084;5.412;2023-02-27T01:50:40;-1.40;99.90
61912;DHT22;49973;52.084;5.412;2023-02-27T01:53:12;-1.40;99.90
61912;DHT22;49973;52.084;5.412;2023-02-27T01:55:41;-1.30;99.90
61912;DHT22;49973;52.084;5.412;2023-02-27T01:58:11;-1.40;99.90
61912;DHT22;49973;52.084;5.412;2023-02-27T02:00:40;-1.40;99.90
61912;DHT22;49973;52.084;5.412;2023-02-27T02:03:17;-1.40;99.90
61912;DHT22;49973;52.084;5.412;2023-02-27T02:05:48;-1.40;99.90
61912;DHT22;49973;52.084;5.412;2023-02-27T02:08:22;-1.40;99.90
61912;DHT22;49973;52.084;5.412;2023-02-27T02:10:53;-1.40;99.90
61912;DHT22;49973;52.084;5.412;2023-02-27T02:13:22;-1.50;99.90
61912;DHT22;49973;52.084;5.412;2023-02-27T02:16:03;-1.50;99.90
61912;DHT22;49973;52.084;5.412;2023-02-27T02:18:42;-1.50;99.90
61912;DHT22;49973;52.084;5.412;2023-02-27T02:24:47;-1.60;99.90
61912;DHT22;49973;52.084;5.412;2023-02-27T02:27:26;-1.60;99.90
61912;DHT22;49973;52.084;5.412;2023-02-27T02:33:33;-1.70;99.90
61912;DHT22;49973;52.084;5.412;2023-02-27T02:39:40;-1.70;99.90
61912;DHT22;49973;52.084;5.412;2023-02-27T02:42:19;-1.70;99.90
61912;DHT22;49973;52.084;5.412;2023-02-27T02:44:56;-1.70;99.90
61912;DHT22;49973;52.084;5.412;2023-02-27T02:47:33;-1.70;99.90
61912;DHT22;49973;52.084;5.412;2023-02-27T02:50:09;-1.70;99.90
61912;DHT22;49973;52.084;5.412;2023-02-27T02:52:47;-1.70;99.90
61912;DHT22;49973;52.084;5.412;2023-02-27T02:55:23;-1.70;99.90
61912;DHT22;49973;52.084;5.412;2023-02-27T02:57:58;-1.70;99.90
61912;DHT22;49973;52.084;5.412;2023-02-27T03:00:32;-1.60;99.90
61912;DHT22;49973;52.084;5.412;2023-02-27T03:03:07;-1.60;99.90
61912;DHT22;49973;52.084;5.412;2023-02-27T03:05:41;-1.40;99.90
61912;DHT22;49973;52.084;5.412;2023-02-27T03:08:13;-1.50;99.90
61912;DHT22;49973;52.084;5.412;2023-02-27T03:10:49;-1.40;99.90
61912;DHT22;49973;52.084;5.412;2023-02-27T03:13:22;-1.40;99.90
61912;DHT22;49973;52.084;5.412;2023-02-27T03:15:55;-1.30;99.90
61912;DHT22;49973;52.084;5.412;2023-02-27T03:18:31;-1.20;99.90
61912;DHT22;49973;52.084;5.412;2023-02-27T03:21:04;-1.30;99.90
61912;DHT22;49973;52.084;5.412;2023-02-27T03:23:39;-1.20;99.90
61912;DHT22;49973;52.084;5.412;2023-02-27T03:26:15;-1.20;99.90
61912;DHT22;49973;52.084;5.412;2023-02-27T03:28:52;-1.20;99.90
61912;DHT22;49973;52.084;5.412;2023-02-27T03:31:26;-1.20;99.90
61912;DHT22;49973;52.084;5.412;2023-02-27T03:34:02;-1.10;99.90
61912;DHT22;49973;52.084;5.412;2023-02-27T03:36:39;-1.20;99.90
61912;DHT22;49973;52.084;5.412;2023-02-27T03:39:17;-1.20;99.90
61912;DHT22;49973;52.084;5.412;2023-02-27T03:41:54;-1.20;99.90
61912;DHT22;49973;52.084;5.412;2023-02-27T03:44:53;-1.20;99.90
61912;DHT22;49973;52.084;5.412;2023-02-27T03:47:22;-1.10;99.90
61912;DHT22;49973;52.084;5.412;2023-02-27T03:49:51;-1.10;99.90
61912;DHT22;49973;52.084;5.412;2023-02-27T03:52:25;-1.00;99.90
61912;DHT22;49973;52.084;5.412;2023-02-27T03:54:58;-1.10;99.90
61912;DHT22;49973;52.084;5.412;2023-02-27T03:57:30;-1.20;99.90
61912;DHT22;49973;52.084;5.412;2023-02-27T04:00:00;-1.20;99.90
61912;DHT22;49973;52.084;5.412;2023-02-27T04:02:40;-1.20;99.90
61912;DHT22;49973;52.084;5.412;2023-02-27T04:05:11;-1.30;99.90
61912;DHT22;49973;52.084;5.412;2023-02-27T04:07:52;-1.30;99.90
61912;DHT22;49973;52.084;5.412;2023-02-27T04:10:49;-1.40;99.90
61912;DHT22;49973;52.084;5.412;2023-02-27T04:13:39;-1.50;99.90
61912;DHT22;49973;52.084;5.412;2023-02-27T04:16:28;-1.60;99.90
61912;DHT22;49973;52.084;5.412;2023-02-27T04:19:10;-1.60;99.90
61912;DHT22;49973;52.084;5.412;2023-02-27T04:21:50;-1.70;99.90
61912;DHT22;49973;52.084;5.412;2023-02-27T04:24:33;-1.70;99.90
61912;DHT22;49973;52.084;5.412;2023-02-27T04:27:09;-1.80;99.90
61912;DHT22;49973;52.084;5.412;2023-02-27T04:29:49;-1.80;99.90
61912;DHT22;49973;52.084;5.412;2023-02-27T04:32:22;-1.80;99.90
61912;DHT22;49973;52.084;5.412;2023-02-27T04:34:55;-1.80;99.90
61912;DHT22;49973;52.084;5.412;2023-02-27T04:37:31;-1.80;99.90
61912;DHT22;49973;52.084;5.412;2023-02-27T04:40:04;-1.80;99.90
61912;DHT22;49973;52.084;5.412;2023-02-27T04:42:38;-1.80;99.90
61912;DHT22;49973;52.084;5.412;2023-02-27T04:45:13;-1.80;99.90
61912;DHT22;49973;52.084;5.412;2023-02-27T04:47:45;-1.80;99.90
61912;DHT22;49973;52.084;5.412;2023-02-27T04:50:18;-1.70;99.90
61912;DHT22;49973;52.084;5.412;2023-02-27T04:52:50;-1.70;99.90
61912;DHT22;49973;52.084;5.412;2023-02-27T04:55:22;-1.70;99.90
61912;DHT22;49973;52.084;5.412;2023-02-27T04:57:58;-1.80;99.90
61912;DHT22;49973;52.084;5.412;2023-02-27T05:00:30;-1.80;99.90
61912;DHT22;49973;52.084;5.412;2023-02-27T05:03:06;-1.80;99.90
61912;DHT22;49973;52.084;5.412;2023-02-27T05:05:39;-1.80;99.90
61912;DHT22;49973;52.084;5.412;2023-02-27T05:08:14;-1.90;99.90
61912;DHT22;49973;52.084;5.412;2023-02-27T05:10:47;-1.90;99.90
61912;DHT22;49973;52.084;5.412;2023-02-27T05:13:20;-1.90;99.90
61912;DHT22;49973;52.084;5.412;2023-02-27T05:15:54;-2.00;99.90
61912;DHT22;49973;52.084;5.412;2023-02-27T05:18:24;-2.00;99.90
61912;DHT22;49973;52.084;5.412;2023-02-27T05:20:57;-2.00;99.90
61912;DHT22;49973;52.084;5.412;2023-02-27T05:23:34;-2.10;99.90
61912;DHT22;49973;52.084;5.412;2023-02-27T05:26:11;-2.10;99.90
61912;DHT22;49973;52.084;5.412;2023-02-27T05:28:48;-2.10;99.90
61912;DHT22;49973;52.084;5.412;2023-02-27T05:31:24;-2.30;99.90
61912;DHT22;49973;52.084;5.412;2023-02-27T05:33:57;-2.20;99.90
61912;DHT22;49973;52.084;5.412;2023-02-27T05:36:30;-2.20;99.90
61912;DHT22;49973;52.084;5.412;2023-02-27T05:39:03;-2.30;99.90
61912;DHT22;49973;52.084;5.412;2023-02-27T05:41:36;-2.30;99.90
61912;DHT22;49973;52.084;5.412;2023-02-27T05:44:10;-2.30;99.90
61912;DHT22;49973;52.084;5.412;2023-02-27T05:46:44;-2.40;99.90
61912;DHT22;49973;52.084;5.412;2023-02-27T05:49:17;-2.40;99.90
61912;DHT22;49973;52.084;5.412;2023-02-27T05:51:49;-2.40;99.90
61912;DHT22;49973;52.084;5.412;2023-02-27T05:54:23;-2.40;99.90
61912;DHT22;49973;52.084;5.412;2023-02-27T05:56:56;-2.40;99.90
61912;DHT22;49973;52.084;5.412;2023-02-27T05:59:29;-2.30;99.90
61912;DHT22;49973;52.084;5.412;2023-02-27T06:02:01;-2.40;99.90
61912;DHT22;49973;52.084;5.412;2023-02-27T06:04:30;-2.50;99.90
61912;DHT22;49973;52.084;5.412;2023-02-27T06:07:04;-2.50;99.90
61912;DHT22;49973;52.084;5.412;2023-02-27T06:09:34;-2.50;99.90
61912;DHT22;49973;52.084;5.412;2023-02-27T06:12:03;-2.50;99.90
61912;DHT22;49973;52.084;5.412;2023-02-27T06:14:32;-2.50;99.90
61912;DHT22;49973;52.084;5.412;2023-02-27T06:17:02;-2.50;99.90
61912;DHT22;49973;52.084;5.412;2023-02-27T06:19:31;-2.60;99.90
61912;DHT22;49973;52.084;5.412;2023-02-27T06:22:00;-2.60;99.90
61912;DHT22;49973;52.084;5.412;2023-02-27T06:24:28;-2.60;99.90
61912;DHT22;49973;52.084;5.412;2023-02-27T06:26:57;-2.60;99.90
61912;DHT22;49973;52.084;5.412;2023-02-27T06:29:26;-2.60;99.90
61912;DHT22;49973;52.084;5.412;2023-02-27T06:31:54;-2.60;99.90
61912;DHT22;49973;52.084;5.412;2023-02-27T06:34:25;-2.60;99.90
61912;DHT22;49973;52.084;5.412;2023-02-27T06:36:54;-2.60;99.90
61912;DHT22;49973;52.084;5.412;2023-02-27T06:39:23;-2.60;99.90
61912;DHT22;49973;52.084;5.412;2023-02-27T06:41:51;-2.60;99.90
61912;DHT22;49973;52.084;5.412;2023-02-27T06:44:20;-2.60;99.90
61912;DHT22;49973;52.084;5.412;2023-02-27T06:46:48;-2.50;99.90
61912;DHT22;49973;52.084;5.412;2023-02-27T06:49:17;-2.50;99.90
61912;DHT22;49973;52.084;5.412;2023-02-27T06:51:47;-2.50;99.90
61912;DHT22;49973;52.084;5.412;2023-02-27T06:54:16;-2.40;99.90
61912;DHT22;49973;52.084;5.412;2023-02-27T06:56:44;-2.30;99.90
61912;DHT22;49973;52.084;5.412;2023-02-27T06:59:14;-2.20;99.90
61912;DHT22;49973;52.084;5.412;2023-02-27T07:01:43;-2.10;99.90
61912;DHT22;49973;52.084;5.412;2023-02-27T07:04:12;-2.10;99.90
61912;DHT22;49973;52.084;5.412;2023-02-27T07:06:41;-2.00;99.90
61912;DHT22;49973;52.084;5.412;2023-02-27T07:09:31;-1.90;99.90
61912;DHT22;49973;52.084;5.412;2023-02-27T07:12:00;-1.80;99.90
61912;DHT22;49973;52.084;5.412;2023-02-27T07:14:29;-1.80;99.90
61912;DHT22;49973;52.084;5.412;2023-02-27T07:16:58;-1.70;99.90
61912;DHT22;49973;52.084;5.412;2023-02-27T07:19:31;-1.60;99.90
61912;DHT22;49973;52.084;5.412;2023-02-27T07:22:02;-1.60;99.90
61912;DHT22;49973;52.084;5.412;2023-02-27T07:24:32;-1.40;99.90
61912;DHT22;49973;52.084;5.412;2023-02-27T07:27:01;-1.30;99.90
61912;DHT22;49973;52.084;5.412;2023-02-27T07:29:30;-1.10;99.90
61912;DHT22;49973;52.084;5.412;2023-02-27T07:31:58;-0.80;99.90
61912;DHT22;49973;52.084;5.412;2023-02-27T07:34:27;-0.40;99.90
61912;DHT22;49973;52.084;5.412;2023-02-27T07:36:56;0.00;99.90
61912;DHT22;49973;52.084;5.412;2023-02-27T07:39:24;0.50;99.90
61912;DHT22;49973;52.084;5.412;2023-02-27T07:41:55;1.00;99.90
61912;DHT22;49973;52.084;5.412;2023-02-27T07:44:23;1.60;99.90
61912;DHT22;49973;52.084;5.412;2023-02-27T07:46:52;1.90;99.90
61912;DHT22;49973;52.084;5.412;2023-02-27T07:49:21;2.30;99.90
61912;DHT22;49973;52.084;5.412;2023-02-27T07:51:50;2.60;99.90
61912;DHT22;49973;52.084;5.412;2023-02-27T07:54:18;2.90;99.90
61912;DHT22;49973;52.084;5.412;2023-02-27T07:56:47;3.30;99.90
61912;DHT22;49973;52.084;5.412;2023-02-27T07:59:17;3.80;99.90
61912;DHT22;49973;52.084;5.412;2023-02-27T08:01:46;4.40;99.90
61912;DHT22;49973;52.084;5.412;2023-02-27T08:04:15;4.90;99.90
61912;DHT22;49973;52.084;5.412;2023-02-27T08:06:44;5.40;99.90
61912;DHT22;49973;52.084;5.412;2023-02-27T08:09:12;5.90;99.90
61912;DHT22;49973;52.084;5.412;2023-02-27T08:11:41;6.50;99.90
61912;DHT22;49973;52.084;5.412;2023-02-27T08:14:10;6.90;99.90
61912;DHT22;49973;52.084;5.412;2023-02-27T08:16:40;7.30;99.90
61912;DHT22;49973;52.084;5.412;2023-02-27T08:19:11;7.30;99.90
61912;DHT22;49973;52.084;5.412;2023-02-27T08:21:40;7.10;99.90
61912;DHT22;49973;52.084;5.412;2023-02-27T08:24:09;6.80;99.90
61912;DHT22;49973;52.084;5.412;2023-02-27T08:26:38;6.40;99.90
61912;DHT22;49973;52.084;5.412;2023-02-27T08:29:06;6.00;99.90
61912;DHT22;49973;52.084;5.412;2023-02-27T08:31:35;5.60;99.90
61912;DHT22;49973;52.084;5.412;2023-02-27T08:34:05;5.20;99.90
61912;DHT22;49973;52.084;5.412;2023-02-27T08:36:37;4.90;99.90
61912;DHT22;49973;52.084;5.412;2023-02-27T08:39:07;4.50;99.90
61912;DHT22;49973;52.084;5.412;2023-02-27T08:41:36;4.20;99.90
61912;DHT22;49973;52.084;5.412;2023-02-27T08:44:04;3.90;99.90
61912;DHT22;49973;52.084;5.412;2023-02-27T08:46:33;3.90;99.90
61912;DHT22;49973;52.084;5.412;2023-02-27T08:49:01;3.50;99.90
61912;DHT22;49973;52.084;5.412;2023-02-27T08:51:31;3.30;99.90
61912;DHT22;49973;52.084;5.412;2023-02-27T08:54:00;3.10;99.90
61912;DHT22;49973;52.084;5.412;2023-02-27T08:56:29;3.00;99.90
61912;DHT22;49973;52.084;5.412;2023-02-27T08:59:00;2.90;99.90
61912;DHT22;49973;52.084;5.412;2023-02-27T09:01:29;2.80;99.90
61912;DHT22;49973;52.084;5.412;2023-02-27T09:04:02;2.70;99.90
61912;DHT22;49973;52.084;5.412;2023-02-27T09:06:33;2.70;99.90
61912;DHT22;49973;52.084;5.412;2023-02-27T09:09:03;2.70;99.90
61912;DHT22;49973;52.084;5.412;2023-02-27T09:11:33;2.70;99.90
61912;DHT22;49973;52.084;5.412;2023-02-27T09:14:05;2.70;99.90
61912;DHT22;49973;52.084;5.412;2023-02-27T09:16:34;2.70;99.90
61912;DHT22;49973;52.084;5.412;2023-02-27T09:19:03;2.70;99.90
61912;DHT22;49973;52.084;5.412;2023-02-27T09:21:33;2.70;99.90
61912;DHT22;49973;52.084;5.412;2023-02-27T09:24:03;2.80;99.90
61912;DHT22;49973;52.084;5.412;2023-02-27T09:26:46;2.80;99.90
61912;DHT22;49973;52.084;5.412;2023-02-27T09:29:15;2.90;99.90
61912;DHT22;49973;52.084;5.412;2023-02-27T09:31:44;2.90;99.90
61912;DHT22;49973;52.084;5.412;2023-02-27T09:34:13;3.00;99.90
61912;DHT22;49973;52.084;5.412;2023-02-27T09:36:43;3.00;99.90
61912;DHT22;49973;52.084;5.412;2023-02-27T09:39:12;3.10;99.90
61912;DHT22;49973;52.084;5.412;2023-02-27T09:41:52;3.10;99.90
61912;DHT22;49973;52.084;5.412;2023-02-27T09:44:29;3.30;99.90
61912;DHT22;49973;52.084;5.412;2023-02-27T09:47:16;3.30;99.90
61912;DHT22;49973;52.084;5.412;2023-02-27T09:49:52;3.40;99.90
61912;DHT22;49973;52.084;5.412;2023-02-27T09:52:24;3.50;99.90
61912;DHT22;49973;52.084;5.412;2023-02-27T09:54:53;3.50;99.90
61912;DHT22;49973;52.084;5.412;2023-02-27T09:57:36;3.60;99.90
61912;DHT22;49973;52.084;5.412;2023-02-27T10:00:19;3.60;99.90
61912;DHT22;49973;52.084;5.412;2023-02-27T10:02:59;3.70;99.90
61912;DHT22;49973;52.084;5.412;2023-02-27T10:05:36;3.80;99.90
61912;DHT22;49973;52.084;5.412;2023-02-27T10:08:15;3.90;99.90
61912;DHT22;49973;52.084;5.412;2023-02-27T10:10:51;3.90;99.90
61912;DHT22;49973;52.084;5.412;2023-02-27T10:13:35;4.00;99.90
61912;DHT22;49973;52.084;5.412;2023-02-27T10:16:10;4.10;99.90
61912;DHT22;49973;52.084;5.412;2023-02-27T10:18:47;4.20;99.90
61912;DHT22;49973;52.084;5.412;2023-02-27T10:21:21;4.30;99.90
61912;DHT22;49973;52.084;5.412;2023-02-27T10:23:56;4.30;99.90
61912;DHT22;49973;52.084;5.412;2023-02-27T10:26:33;4.30;99.90
61912;DHT22;49973;52.084;5.412;2023-02-27T10:29:14;4.40;99.90
61912;DHT22;49973;52.084;5.412;2023-02-27T10:31:46;4.50;99.90
61912;DHT22;49973;52.084;5.412;2023-02-27T10:34:17;4.60;99.90
61912;DHT22;49973;52.084;5.412;2023-02-27T10:36:46;4.80;99.90
61912;DHT22;49973;52.084;5.412;2023-02-27T10:39:17;4.90;99.90
61912;DHT22;49973;52.084;5.412;2023-02-27T10:41:48;5.20;99.90
61912;DHT22;49973;52.084;5.412;2023-02-27T10:44:17;5.30;99.90
61912;DHT22;49973;52.084;5.412;2023-02-27T10:46:47;5.50;99.90
61912;DHT22;49973;52.084;5.412;2023-02-27T10:49:19;5.60;99.90
61912;DHT22;49973;52.084;5.412;2023-02-27T10:52:05;5.70;99.90
61912;DHT22;49973;52.084;5.412;2023-02-27T10:54:36;5.80;99.90
61912;DHT22;49973;52.084;5.412;2023-02-27T10:57:20;5.90;99.90
61912;DHT22;49973;52.084;5.412;2023-02-27T10:59:54;5.90;99.90
61912;DHT22;49973;52.084;5.412;2023-02-27T11:02:27;5.90;99.90
61912;DHT22;49973;52.084;5.412;2023-02-27T11:04:59;5.90;99.90
61912;DHT22;49973;52.084;5.412;2023-02-27T11:07:31;6.00;99.90
61912;DHT22;49973;52.084;5.412;2023-02-27T11:10:16;6.20;99.90
61912;DHT22;49973;52.084;5.412;2023-02-27T11:13:01;6.20;99.90
61912;DHT22;49973;52.084;5.412;2023-02-27T11:15:31;6.50;99.90
61912;DHT22;49973;52.084;5.412;2023-02-27T11:18:19;6.60;99.90
61912;DHT22;49973;52.084;5.412;2023-02-27T11:20:48;6.60;99.90
61912;DHT22;49973;52.084;5.412;2023-02-27T11:23:19;6.70;99.90
61912;DHT22;49973;52.084;5.412;2023-02-27T11:25:50;6.60;99.90
61912;DHT22;49973;52.084;5.412;2023-02-27T11:28:28;6.70;99.90
61912;DHT22;49973;52.084;5.412;2023-02-27T11:30:58;6.90;99.90
61912;DHT22;49973;52.084;5.412;2023-02-27T11:33:30;7.00;99.90
61912;DHT22;49973;52.084;5.412;2023-02-27T11:36:01;7.10;99.90
61912;DHT22;49973;52.084;5.412;2023-02-27T11:38:31;7.20;99.90
61912;DHT22;49973;52.084;5.412;2023-02-27T11:41:04;7.20;99.90
61912;DHT22;49973;52.084;5.412;2023-02-27T11:43:36;7.20;99.90
61912;DHT22;49973;52.084;5.412;2023-02-27T11:46:11;7.00;99.90
61912;DHT22;49973;52.084;5.412;2023-02-27T11:49:12;6.70;99.90
61912;DHT22;49973;52.084;5.412;2023-02-27T11:51:51;6.60;99.90
61912;DHT22;49973;52.084;5.412;2023-02-27T11:54:31;6.40;99.90
61912;DHT22;49973;52.084;5.412;2023-02-27T11:57:13;6.30;99.90
61912;DHT22;49973;52.084;5.412;2023-02-27T11:59:47;6.20;99.90
61912;DHT22;49973;52.084;5.412;2023-02-27T12:02:22;6.20;99.90
61912;DHT22;49973;52.084;5.412;2023-02-27T12:04:55;6.20;99.90
61912;DHT22;49973;52.084;5.412;2023-02-27T12:07:28;6.10;99.90
61912;DHT22;49973;52.084;5.412;2023-02-27T12:10:02;6.10;99.90
61912;DHT22;49973;52.084;5.412;2023-02-27T12:12:40;6.20;99.90
61912;DHT22;49973;52.084;5.412;2023-02-27T12:15:18;6.20;99.90
61912;DHT22;49973;52.084;5.412;2023-02-27T12:17:52;6.20;99.90
61912;DHT22;49973;52.084;5.412;2023-02-27T12:20:27;6.20;99.90
61912;DHT22;49973;52.084;5.412;2023-02-27T12:22:56;6.30;99.90
61912;DHT22;49973;52.084;5.412;2023-02-27T12:25:34;6.30;99.90
61912;DHT22;49973;52.084;5.412;2023-02-27T12:28:16;6.40;99.90
61912;DHT22;49973;52.084;5.412;2023-02-27T12:30:51;6.60;99.90
61912;DHT22;49973;52.084;5.412;2023-02-27T12:33:31;6.80;99.90
61912;DHT22;49973;52.084;5.412;2023-02-27T12:36:03;6.80;99.90
61912;DHT22;49973;52.084;5.412;2023-02-27T12:38:32;7.00;99.90
61912;DHT22;49973;52.084;5.412;2023-02-27T12:41:27;7.10;99.90
61912;DHT22;49973;52.084;5.412;2023-02-27T12:44:13;7.20;99.90
61912;DHT22;49973;52.084;5.412;2023-02-27T12:46:47;7.30;99.90
61912;DHT22;49973;52.084;5.412;2023-02-27T12:49:27;7.20;99.90
61912;DHT22;49973;52.084;5.412;2023-02-27T12:52:04;7.20;99.90
61912;DHT22;49973;52.084;5.412;2023-02-27T12:54:46;7.20;99.90
61912;DHT22;49973;52.084;5.412;2023-02-27T12:57:29;7.30;99.90
61912;DHT22;49973;52.084;5.412;2023-02-27T13:00:10;7.50;99.90
61912;DHT22;49973;52.084;5.412;2023-02-27T13:02:47;7.60;99.90
61912;DHT22;49973;52.084;5.412;2023-02-27T13:05:35;7.70;99.90
61912;DHT22;49973;52.084;5.412;2023-02-27T13:08:25;7.80;99.90
61912;DHT22;49973;52.084;5.412;2023-02-27T13:10:59;7.80;99.90
61912;DHT22;49973;52.084;5.412;2023-02-27T13:13:37;7.80;99.90
61912;DHT22;49973;52.084;5.412;2023-02-27T13:16:14;7.80;99.90
61912;DHT22;49973;52.084;5.412;2023-02-27T13:18:47;7.80;99.90
61912;DHT22;49973;52.084;5.412;2023-02-27T13:21:22;7.90;99.90
61912;DHT22;49973;52.084;5.412;2023-02-27T13:24:01;8.00;99.90
61912;DHT22;49973;52.084;5.412;2023-02-27T13:26:34;8.00;99.90
61912;DHT22;49973;52.084;5.412;2023-02-27T13:29:04;7.90;99.90
61912;DHT22;49973;52.084;5.412;2023-02-27T13:31:43;7.80;99.90
61912;DHT22;49973;52.084;5.412;2023-02-27T13:34:16;7.60;99.90
61912;DHT22;49973;52.084;5.412;2023-02-27T13:36:51;7.60;99.90
61912;DHT22;49973;52.084;5.412;2023-02-27T13:39:52;7.60;99.90
61912;DHT22;49973;52.084;5.412;2023-02-27T13:42:49;7.70;99.90
61912;DHT22;49973;52.084;5.412;2023-02-27T13:45:44;7.80;99.90
61912;DHT22;49973;52.084;5.412;2023-02-27T13:48:37;7.90;99.90
61912;DHT22;49973;52.084;5.412;2023-02-27T13:51:10;7.90;99.90
61912;DHT22;49973;52.084;5.412;2023-02-27T13:54:18;7.80;99.90
61912;DHT22;49973;52.084;5.412;2023-02-27T13:56:49;7.80;99.90
61912;DHT22;49973;52.084;5.412;2023-02-27T13:59:20;7.80;99.90
61912;DHT22;49973;52.084;5.412;2023-02-27T14:01:52;7.70;99.90
61912;DHT22;49973;52.084;5.412;2023-02-27T14:04:26;7.80;99.90
61912;DHT22;49973;52.084;5.412;2023-02-27T14:06:58;7.60;99.90
61912;DHT22;49973;52.084;5.412;2023-02-27T14:09:33;7.70;99.90
61912;DHT22;49973;52.084;5.412;2023-02-27T14:12:05;7.80;99.90
61912;DHT22;49973;52.084;5.412;2023-02-27T14:14:39;8.00;99.90
61912;DHT22;49973;52.084;5.412;2023-02-27T14:17:12;8.00;99.90
61912;DHT22;49973;52.084;5.412;2023-02-27T14:19:53;8.00;99.90
61912;DHT22;49973;52.084;5.412;2023-02-27T14:22:32;8.00;99.90
61912;DHT22;49973;52.084;5.412;2023-02-27T14:25:02;8.00;99.90
61912;DHT22;49973;52.084;5.412;2023-02-27T14:27:47;8.10;99.90
61912;DHT22;49973;52.084;5.412;2023-02-27T14:30:33;8.10;99.90
61912;DHT22;49973;52.084;5.412;2023-02-27T14:33:10;8.00;99.90
61912;DHT22;49973;52.084;5.412;2023-02-27T14:35:46;7.90;99.90
61912;DHT22;49973;52.084;5.412;2023-02-27T14:38:18;7.70;99.90
61912;DHT22;49973;52.084;5.412;2023-02-27T14:40:59;7.50;99.90
61912;DHT22;49973;52.084;5.412;2023-02-27T14:43:36;7.30;99.90
61912;DHT22;49973;52.084;5.412;2023-02-27T14:46:14;7.30;99.90
61912;DHT22;49973;52.084;5.412;2023-02-27T14:48:44;7.20;99.90
61912;DHT22;49973;52.084;5.412;2023-02-27T14:51:14;7.10;99.90
61912;DHT22;49973;52.084;5.412;2023-02-27T14:53:43;7.30;99.90
61912;DHT22;49973;52.084;5.412;2023-02-27T14:56:17;7.40;99.90
61912;DHT22;49973;52.084;5.412;2023-02-27T14:58:47;7.50;99.90
61912;DHT22;49973;52.084;5.412;2023-02-27T15:01:33;7.60;99.90
61912;DHT22;49973;52.084;5.412;2023-02-27T15:04:03;7.60;99.90
61912;DHT22;49973;52.084;5.412;2023-02-27T15:06:39;7.50;99.90
61912;DHT22;49973;52.084;5.412;2023-02-27T15:09:20;7.50;99.90
61912;DHT22;49973;52.084;5.412;2023-02-27T15:11:51;7.40;99.90
61912;DHT22;49973;52.084;5.412;2023-02-27T15:14:32;7.30;99.90
61912;DHT22;49973;52.084;5.412;2023-02-27T15:17:02;7.20;99.90
61912;DHT22;49973;52.084;5.412;2023-02-27T15:19:31;7.10;99.90
61912;DHT22;49973;52.084;5.412;2023-02-27T15:22:12;7.00;99.90
61912;DHT22;49973;52.084;5.412;2023-02-27T15:24:52;6.90;99.90
61912;DHT22;49973;52.084;5.412;2023-02-27T15:27:23;6.90;99.90
61912;DHT22;49973;52.084;5.412;2023-02-27T15:29:54;6.90;99.90
61912;DHT22;49973;52.084;5.412;2023-02-27T15:32:27;6.90;99.90
61912;DHT22;49973;52.084;5.412;2023-02-27T15:34:58;7.20;99.90
61912;DHT22;49973;52.084;5.412;2023-02-27T15:37:31;7.20;99.90
61912;DHT22;49973;52.084;5.412;2023-02-27T15:40:00;7.30;99.90
61912;DHT22;49973;52.084;5.412;2023-02-27T15:42:31;7.40;99.90
61912;DHT22;49973;52.084;5.412;2023-02-27T15:45:03;7.40;99.90
61912;DHT22;49973;52.084;5.412;2023-02-27T15:47:33;7.30;99.90
61912;DHT22;49973;52.084;5.412;2023-02-27T15:50:09;7.30;99.90
61912;DHT22;49973;52.084;5.412;2023-02-27T15:52:40;7.10;99.90
61912;DHT22;49973;52.084;5.412;2023-02-27T15:55:13;6.90;99.90
61912;DHT22;49973;52.084;5.412;2023-02-27T15:57:42;6.80;99.90
61912;DHT22;49973;52.084;5.412;2023-02-27T16:00:30;6.80;99.90
61912;DHT22;49973;52.084;5.412;2023-02-27T16:02:59;6.80;99.90
61912;DHT22;49973;52.084;5.412;2023-02-27T16:05:32;6.70;99.90
61912;DHT22;49973;52.084;5.412;2023-02-27T16:08:03;6.60;99.90
61912;DHT22;49973;52.084;5.412;2023-02-27T16:10:36;6.60;99.90
61912;DHT22;49973;52.084;5.412;2023-02-27T16:13:25;6.50;99.90
61912;DHT22;49973;52.084;5.412;2023-02-27T16:15:58;6.50;99.90
61912;DHT22;49973;52.084;5.412;2023-02-27T16:18:30;6.40;99.90
61912;DHT22;49973;52.084;5.412;2023-02-27T16:21:09;6.30;99.90
61912;DHT22;49973;52.084;5.412;2023-02-27T16:23:40;6.30;99.90
61912;DHT22;49973;52.084;5.412;2023-02-27T16:26:29;6.20;99.90
61912;DHT22;49973;52.084;5.412;2023-02-27T16:28:59;6.20;99.90
61912;DHT22;49973;52.084;5.412;2023-02-27T16:31:31;6.30;99.90